createdAt,value
2019-04-22T00:02:17.494Z,17.28
2019-04-22T00:06:00.390Z,17.17
2019-04-22T00:09:30.926Z,16.94
2019-04-22T00:13:02.882Z,16.86
2019-04-22T00:16:32.058Z,16.96
2019-04-22T00:19:55.606Z,16.67
2019-04-22T00:23:13.184Z,16.46
2019-04-22T00:26:44.406Z,16.14
2019-04-22T00:30:15.481Z,16.15
2019-04-22T00:33:31.251Z,16.18
2019-04-22T00:36:54.834Z,15.87
2019-04-22T00:40:21.347Z,15.75
2019-04-22T00:43:51.108Z,15.73
2019-04-22T00:47:16.386Z,15.57
2019-04-22T00:50:44.321Z,15.42
2019-04-22T00:54:03.819Z,15.35
2019-04-22T00:57:28.449Z,15.38
2019-04-22T01:00:54.225Z,15.45
2019-04-22T01:04:31.142Z,15.37
2019-04-22T01:07:44.565Z,15.19
2019-04-22T01:11:21.449Z,15.12
2019-04-22T01:14:38.280Z,15.10
2019-04-22T01:17:57.882Z,15.01
2019-04-22T01:21:36.376Z,14.99
2019-04-22T01:24:50.257Z,14.86
2019-04-22T01:28:10.873Z,14.85
2019-04-22T01:31:23.945Z,14.81
2019-04-22T01:34:57.591Z,14.56
2019-04-22T01:38:31.353Z,14.68
2019-04-22T01:42:10.729Z,14.59
2019-04-22T01:45:31.300Z,14.45
2019-04-22T01:48:54.280Z,14.52
2019-04-22T01:52:15.765Z,14.19
2019-04-22T01:55:45.328Z,14.38
2019-04-22T01:58:59.014Z,14.27
2019-04-22T02:02:40.108Z,14.15
2019-04-22T02:06:02.349Z,14.08
2019-04-22T02:12:48.367Z,14.07
2019-04-22T02:16:15.147Z,13.98
2019-04-22T02:19:31.173Z,14.02
2019-04-22T02:23:45.845Z,14.03
2019-04-22T02:26:53.083Z,13.81
2019-04-22T02:30:05.826Z,13.89
2019-04-22T02:34:00.799Z,13.65
2019-04-22T02:37:02.852Z,13.77
2019-04-22T02:40:50.718Z,13.64
2019-04-22T02:43:59.581Z,13.59
2019-04-22T02:47:27.604Z,13.52
2019-04-22T02:50:43.774Z,13.37
2019-04-22T02:57:45.058Z,13.41
2019-04-22T03:01:05.954Z,13.29
2019-04-22T03:08:02.447Z,13.46
2019-04-22T03:11:19.179Z,13.28
2019-04-22T03:14:41.353Z,13.19
2019-04-22T03:18:09.725Z,13.18
2019-04-22T03:21:34.317Z,13.12
2019-04-22T03:25:23.661Z,13.24
2019-04-22T03:28:33.087Z,13.19
2019-04-22T03:39:06.848Z,13.20
2019-04-22T03:45:32.216Z,12.81
2019-04-22T03:49:23.121Z,12.68
2019-04-22T03:55:57.523Z,12.76
2019-04-22T03:59:29.095Z,12.78
2019-04-22T04:06:05.311Z,12.72
2019-04-22T04:09:42.617Z,12.64
2019-04-22T04:13:02.863Z,12.59
2019-04-22T04:16:29.978Z,12.58
2019-04-22T04:30:13.978Z,12.49
2019-04-22T04:33:51.856Z,12.28
2019-04-22T04:37:07.482Z,12.35
2019-04-22T04:40:28.798Z,12.48
2019-04-22T04:47:32.934Z,12.31
2019-04-22T04:57:56.974Z,12.37
2019-04-22T05:01:03.297Z,12.34
2019-04-22T05:04:25.538Z,12.31
2019-04-22T05:07:51.937Z,12.55
2019-04-22T05:11:16.098Z,12.77
2019-04-22T05:14:28.752Z,12.79
2019-04-22T05:24:56.884Z,13.20
2019-04-22T05:28:10.328Z,13.17
2019-04-22T05:31:37.198Z,13.08
2019-04-22T05:35:01.333Z,13.18
2019-04-22T05:38:33.194Z,13.21
2019-04-22T05:41:54.854Z,13.47
2019-04-22T05:45:23.146Z,13.58
2019-04-22T05:48:46.288Z,13.76
2019-04-22T05:52:11.110Z,13.86
2019-04-22T05:55:38.650Z,14.21
2019-04-22T06:02:45.635Z,14.68
2019-04-22T06:05:47.409Z,14.84
2019-04-22T06:09:16.972Z,15.21
2019-04-22T06:12:40.098Z,15.29
2019-04-22T06:16:09.351Z,15.54
2019-04-22T06:19:34.881Z,15.79
2019-04-22T06:26:46.267Z,16.20
2019-04-22T06:29:50.785Z,16.53
2019-04-22T06:36:45.212Z,16.81
2019-04-22T06:40:06.168Z,17.08
2019-04-22T06:47:00.115Z,17.61
2019-04-22T06:50:26.149Z,17.79
2019-04-22T06:53:47.283Z,18.01
2019-04-22T06:57:11.586Z,18.22
2019-04-22T07:00:36.712Z,18.47
2019-04-22T07:07:26.759Z,18.58
2019-04-22T07:10:50.742Z,18.56
2019-04-22T07:14:28.586Z,18.67
2019-04-22T07:21:05.940Z,19.06
2019-04-22T07:24:41.808Z,19.29
2019-04-22T07:28:01.408Z,19.25
2019-04-22T07:31:26.842Z,19.50
2019-04-22T07:34:52.460Z,19.48
2019-04-22T07:38:25.526Z,19.52
2019-04-22T07:41:49.023Z,19.71
2019-04-22T07:45:10.207Z,19.79
2019-04-22T07:48:43.413Z,19.96
2019-04-22T07:51:56.175Z,20.12
2019-04-22T07:55:30.586Z,20.19
2019-04-22T07:58:53.658Z,20.26
2019-04-22T08:02:16.037Z,20.43
2019-04-22T08:05:51.926Z,20.45
2019-04-22T08:12:51.922Z,20.58
2019-04-22T08:15:58.114Z,20.63
2019-04-22T08:22:51.048Z,20.88
2019-04-22T08:26:16.771Z,21.04
2019-04-22T08:29:46.955Z,21.19
2019-04-22T08:33:05.123Z,21.29
2019-04-22T08:36:32.346Z,21.41
2019-04-22T08:40:04.537Z,21.65
2019-04-22T08:43:26.796Z,22.02
2019-04-22T08:47:04.413Z,22.19
2019-04-22T08:50:16.500Z,22.45
2019-04-22T08:53:45.403Z,22.48
2019-04-22T08:56:56.940Z,22.66
2019-04-22T09:00:44.572Z,22.79
2019-04-22T09:03:52.463Z,23.11
2019-04-22T09:07:20.931Z,23.20
2019-04-22T09:11:07.770Z,23.53
2019-04-22T09:17:28.860Z,23.75
2019-04-22T09:20:58.823Z,23.91
2019-04-22T09:27:48.417Z,24.21
2019-04-22T09:31:11.803Z,24.44
2019-04-22T09:34:35.192Z,24.36
2019-04-22T09:38:12.064Z,24.81
2019-04-22T09:41:27.139Z,25.36
2019-04-22T09:45:06.055Z,25.75
2019-04-22T09:51:46.172Z,26.17
2019-04-22T09:58:31.687Z,27.04
2019-04-22T10:02:13.387Z,27.12
2019-04-22T10:05:21.179Z,27.04
2019-04-22T10:09:01.734Z,27.70
2019-04-22T10:12:19.086Z,28.34
2019-04-22T10:15:39.646Z,28.83
2019-04-22T10:19:04.204Z,28.85
2019-04-22T10:22:35.004Z,29.11
2019-04-22T10:25:57.112Z,29.04
2019-04-22T10:29:43.902Z,29.91
2019-04-22T10:33:03.005Z,31.44
2019-04-22T10:35:47.598Z,31.20
2019-04-22T10:39:12.555Z,30.02
2019-04-22T10:42:43.438Z,31.90
2019-04-22T10:46:08.108Z,32.27
2019-04-22T10:49:31.536Z,32.26
2019-04-22T10:52:55.344Z,31.14
2019-04-22T10:56:22.981Z,33.00
2019-04-22T10:59:46.863Z,32.08
2019-04-22T11:03:12.055Z,32.13
2019-04-22T11:06:41.006Z,33.67
2019-04-22T11:10:22.806Z,32.98
2019-04-22T11:13:31.629Z,32.68
2019-04-22T11:16:58.191Z,32.36
2019-04-22T11:20:21.775Z,32.15
2019-04-22T11:23:45.120Z,31.62
2019-04-22T11:27:08.402Z,32.80
2019-04-22T11:30:32.397Z,32.79
2019-04-22T11:33:56.691Z,32.90
2019-04-22T11:37:20.765Z,33.48
2019-04-22T11:40:49.950Z,35.00
2019-04-22T11:44:09.598Z,34.65
2019-04-22T11:47:33.371Z,35.07
2019-04-22T11:50:57.770Z,34.75
2019-04-22T11:54:22.982Z,34.47
2019-04-22T11:57:47.606Z,32.91
2019-04-22T12:01:12.666Z,34.16
2019-04-22T12:04:36.063Z,34.57
2019-04-22T12:08:03.007Z,35.17
2019-04-22T12:11:26.364Z,34.98
2019-04-22T12:14:50.085Z,35.94
2019-04-22T12:18:15.168Z,33.34
2019-04-22T12:21:39.367Z,34.92
2019-04-22T12:25:04.134Z,34.61
2019-04-22T12:28:28.710Z,35.14
2019-04-22T12:31:51.871Z,35.94
2019-04-22T12:35:17.755Z,35.80
2019-04-22T12:38:41.804Z,38.35
2019-04-22T12:42:06.195Z,36.60
2019-04-22T12:45:31.925Z,36.37
2019-04-22T12:48:56.257Z,36.56
2019-04-22T12:52:26.655Z,38.24
2019-04-22T12:55:45.930Z,38.61
2019-04-22T12:59:09.719Z,40.03
2019-04-22T13:02:33.182Z,36.98
2019-04-22T13:05:57.548Z,36.20
2019-04-22T13:09:21.242Z,34.20
2019-04-22T13:12:44.756Z,34.12
2019-04-22T13:16:09.033Z,36.45
2019-04-22T13:19:33.874Z,37.15
2019-04-22T13:22:57.107Z,37.93
2019-04-22T13:26:21.116Z,39.04
2019-04-22T13:29:46.567Z,39.01
2019-04-22T13:33:10.735Z,39.19
2019-04-22T13:36:34.640Z,38.01
2019-04-22T13:40:05.381Z,38.76
2019-04-22T13:43:34.745Z,38.39
2019-04-22T13:47:14.543Z,39.32
2019-04-22T13:57:32.815Z,38.66
2019-04-22T14:00:42.559Z,38.43
2019-04-22T14:04:32.553Z,38.89
2019-04-22T14:07:57.572Z,40.10
2019-04-22T14:11:34.155Z,37.55
2019-04-22T14:14:49.081Z,38.05
2019-04-22T14:18:12.867Z,38.15
2019-04-22T14:21:36.792Z,38.27
2019-04-22T14:25:02.877Z,39.41
2019-04-22T14:29:05.962Z,39.27
2019-04-22T14:32:32.349Z,38.72
2019-04-22T14:35:56.633Z,38.97
2019-04-22T14:39:19.888Z,39.42
2019-04-22T14:43:00.590Z,38.50
2019-04-22T14:46:35.983Z,39.38
2019-04-22T14:49:54.275Z,39.58
2019-04-22T14:53:21.037Z,39.32
2019-04-22T14:56:26.561Z,38.82
2019-04-22T14:59:50.177Z,38.53
2019-04-22T15:03:13.558Z,38.51
2019-04-22T15:06:37.952Z,38.15
2019-04-22T15:10:01.950Z,39.03
2019-04-22T15:13:25.396Z,40.33
2019-04-22T15:17:09.000Z,39.89
2019-04-22T15:20:41.975Z,41.26
2019-04-22T15:24:25.098Z,41.38
2019-04-22T15:27:51.074Z,39.53
2019-04-22T15:31:15.275Z,39.71
2019-04-22T15:34:39.501Z,40.83
2019-04-22T15:38:04.573Z,41.32
2019-04-22T15:41:30.415Z,40.78
2019-04-22T15:44:53.874Z,38.71
2019-04-22T15:48:17.117Z,38.55
2019-04-22T15:51:40.926Z,38.76
2019-04-22T15:55:04.863Z,39.44
2019-04-22T15:58:30.260Z,40.02
2019-04-22T16:01:58.168Z,38.87
2019-04-22T16:05:18.359Z,38.21
2019-04-22T16:08:41.457Z,39.52
2019-04-22T16:12:16.191Z,39.77
2019-04-22T16:15:30.739Z,38.57
2019-04-22T16:18:54.356Z,38.79
2019-04-22T16:22:19.728Z,37.85
2019-04-22T16:25:56.042Z,35.19
2019-04-22T16:29:19.450Z,34.54
2019-04-22T16:32:43.519Z,34.41
2019-04-22T16:36:07.251Z,33.33
2019-04-22T16:39:32.967Z,33.04
2019-04-22T16:42:59.265Z,31.93
2019-04-22T16:46:21.815Z,30.62
2019-04-22T16:49:45.697Z,31.60
2019-04-22T16:53:10.218Z,30.77
2019-04-22T16:56:35.650Z,30.36
2019-04-22T17:00:00.533Z,30.62
2019-04-22T17:03:42.819Z,30.40
2019-04-22T17:07:12.363Z,30.08
2019-04-22T17:10:35.727Z,29.40
2019-04-22T17:13:59.399Z,29.23
2019-04-22T17:17:24.515Z,29.09
2019-04-22T17:20:48.736Z,28.84
2019-04-22T17:24:12.084Z,28.81
2019-04-22T17:27:35.272Z,28.54
2019-04-22T17:31:01.793Z,28.73
2019-04-22T17:34:27.529Z,28.29
2019-04-22T17:38:01.758Z,28.36
2019-04-22T17:41:33.115Z,27.94
2019-04-22T17:45:38.919Z,27.92
2019-04-22T17:49:04.348Z,27.70
2019-04-22T17:52:30.371Z,27.39
2019-04-22T17:56:00.606Z,27.81
2019-04-22T17:59:25.038Z,27.07
2019-04-22T18:02:45.875Z,27.26
2019-04-22T18:05:59.550Z,27.20
2019-04-22T18:10:10.704Z,26.47
2019-04-22T18:13:14.018Z,26.06
2019-04-22T18:16:30.525Z,26.16
2019-04-22T18:19:51.875Z,26.28
2019-04-22T18:23:09.649Z,26.34
2019-04-22T18:26:49.754Z,26.07
2019-04-22T18:30:09.234Z,25.79
2019-04-22T18:33:37.115Z,25.64
2019-04-22T18:37:01.682Z,25.54
2019-04-22T18:40:30.975Z,25.60
2019-04-22T18:43:58.777Z,25.17
2019-04-22T18:47:18.585Z,24.92
2019-04-22T18:50:56.289Z,25.02
2019-04-22T18:54:36.234Z,24.97
2019-04-22T18:57:59.110Z,24.71
2019-04-22T19:01:10.251Z,24.58
2019-04-22T19:04:44.362Z,24.56
2019-04-22T19:08:29.256Z,24.55
2019-04-22T19:12:01.797Z,24.72
2019-04-22T19:15:22.657Z,24.56
2019-04-22T19:18:41.505Z,24.20
2019-04-22T19:22:02.209Z,24.34
2019-04-22T19:25:23.897Z,24.33
2019-04-22T19:28:58.794Z,24.30
2019-04-22T19:32:21.104Z,24.20
2019-04-22T19:35:40.049Z,23.96
2019-04-22T19:39:07.998Z,23.48
2019-04-22T19:46:00.453Z,23.41
2019-04-22T19:49:33.328Z,23.34
2019-04-22T19:52:50.046Z,23.38
2019-04-22T19:56:14.737Z,23.37
2019-04-22T19:59:45.501Z,22.91
2019-04-22T20:03:37.707Z,23.22
2019-04-22T20:06:53.394Z,23.04
2019-04-22T20:10:26.512Z,22.94
2019-04-22T20:13:55.734Z,23.06
2019-04-22T20:17:18.704Z,22.74
2019-04-22T20:20:44.654Z,22.70
2019-04-22T20:23:55.933Z,22.41
2019-04-22T20:27:39.248Z,22.41
2019-04-22T20:30:55.494Z,22.20
2019-04-22T20:34:23.929Z,22.18
2019-04-22T20:37:54.878Z,21.76
2019-04-22T20:41:15.017Z,22.16
2019-04-22T20:44:47.291Z,22.33
2019-04-22T20:47:58.809Z,22.00
2019-04-22T20:51:45.912Z,22.08
2019-04-22T20:54:55.983Z,21.89
2019-04-22T20:58:21.246Z,21.73
2019-04-22T21:01:43.238Z,21.29
2019-04-22T21:05:00.155Z,21.60
2019-04-22T21:08:38.952Z,21.46
2019-04-22T21:11:57.773Z,21.43
2019-04-22T21:15:36.860Z,21.45
2019-04-22T21:18:46.296Z,20.97
2019-04-22T21:22:27.297Z,20.97
2019-04-22T21:25:39.601Z,21.08
2019-04-22T21:29:14.718Z,21.01
2019-04-22T21:32:42.036Z,20.72
2019-04-22T21:36:16.240Z,20.79
2019-04-22T21:39:27.459Z,20.83
2019-04-22T21:43:01.041Z,20.77
2019-04-22T21:46:22.333Z,20.74
2019-04-22T21:49:51.397Z,20.44
2019-04-22T21:53:14.495Z,20.54
2019-04-22T21:57:16.984Z,20.39
2019-04-22T22:00:43.230Z,20.12
2019-04-22T22:04:06.616Z,20.15
2019-04-22T22:07:13.561Z,20.09
2019-04-22T22:10:56.853Z,19.89
2019-04-22T22:14:16.720Z,20.08
2019-04-22T22:17:35.370Z,20.23
2019-04-22T22:21:30.928Z,20.13
2019-04-22T22:24:35.914Z,19.86
2019-04-22T22:28:00.955Z,20.02
2019-04-22T22:31:31.382Z,19.78
2019-04-22T22:34:52.077Z,19.61
2019-04-22T22:38:13.440Z,19.36
2019-04-22T22:41:18.407Z,19.54
2019-04-22T22:44:46.741Z,19.70
2019-04-22T22:48:34.875Z,19.49
2019-04-22T22:52:03.561Z,19.46
2019-04-22T22:55:22.262Z,19.33
2019-04-22T22:58:50.369Z,19.50
2019-04-22T23:02:09.657Z,19.44
2019-04-22T23:05:40.213Z,19.23
2019-04-22T23:09:04.449Z,19.11
2019-04-22T23:12:34.762Z,18.96
2019-04-22T23:15:47.732Z,18.77
2019-04-22T23:19:02.017Z,18.88
2019-04-22T23:22:36.147Z,18.62
2019-04-22T23:26:11.877Z,18.77
2019-04-22T23:29:47.540Z,18.67
2019-04-22T23:33:21.814Z,18.56
2019-04-22T23:37:04.385Z,18.37
2019-04-22T23:40:37.117Z,18.12
2019-04-22T23:44:02.061Z,18.21
2019-04-22T23:47:24.279Z,18.27
2019-04-22T23:50:54.146Z,18.18
2019-04-22T23:54:23.974Z,18.22
2019-04-22T23:57:46.571Z,18.06
